Time;durP1;ratioP1;P1;durP2;ratioP2;P2;SDS_P1;SDS_P2;PMS_P1;PMS_P2;Temp;Humidity;BMP_temperature;BMP_pressure;BME280_temperature;BME280_humidity;BME280_pressure;Samples;Min_cycle;Max_cycle;Signal;HPM_P1;HPM_P2
2022/07/08 06:15:48;;;;;;;;;;;;;;;21.85;52.43;97784.72;4260962;27;10378;-83
2022/07/08 06:17:51;;;;;;;;;;;;;;;22.12;52.37;97800.34;4249523;27;7698;-78
2022/07/08 06:19:54;;;;;;;;;;;;;;;22.36;52.04;97818.00;4264307;27;5660;-76
2022/07/08 06:21:57;;;;;;;;;;;;;;;22.52;51.40;97805.59;4266271;27;5655;-76
2022/07/08 06:24:01;;;;;;;;;;;;;;;22.74;51.15;97814.56;4265363;27;5624;-77
2022/07/08 06:26:05;;;;;;;;;;;;;;;22.89;51.02;97819.44;4265920;27;5623;-77
2022/07/08 06:28:08;;;;;;;;;;;;;;;22.98;50.78;97807.13;4266043;27;5612;-76
2022/07/08 06:30:12;;;;;;;;;;;;;;;23.17;50.28;97807.69;4266235;27;6415;-85
2022/07/08 06:32:16;;;;;;;;;;;;;;;;;;4265859;27;5647;-81
2022/07/08 06:34:20;;;;;;;;;;;;;;;23.30;49.63;97815.41;4265562;27;5620;-75
2022/07/08 06:36:24;;;;;;;;;;;;;;;23.29;49.68;97810.25;4265933;27;6447;-77
2022/07/08 06:38:27;;;;;;;;;;;;;;;23.36;49.16;97800.09;4264372;27;5593;-76
2022/07/08 06:40:31;;;;;;;;;;;;;;;;;;4265536;27;6451;-79
2022/07/08 06:42:34;;;;;;;;;;;;;;;23.26;49.33;97805.38;4265688;27;5639;-78
2022/07/08 06:44:37;;;;;;;;;;;;;;;23.29;49.26;97807.56;4265817;27;5636;-86
2022/07/08 06:46:40;;;;;;;;;;;;;;;23.32;48.88;97815.97;4264476;27;5699;-79
2022/07/08 06:48:45;;;;;;;;;;;;;;;23.27;49.11;97817.78;4265565;27;5664;-81
2022/07/08 06:50:48;;;;;;;;;;;;;;;23.35;49.17;97812.78;4263649;27;5676;-84
2022/07/08 06:52:51;;;;;;;;;;;;;;;23.42;48.56;97826.88;4266419;27;5691;-86
2022/07/08 06:54:54;;;;;;;;;;;;;;;23.47;48.38;97818.88;4265936;27;5632;-89
2022/07/08 06:56:57;;;;;;;;;;;;;;;23.46;48.08;97816.44;4265526;27;5732;-75
2022/07/08 06:59:00;;;;;;;;;;;;;;;23.46;48.20;97822.66;4266779;27;5620;-91
2022/07/08 07:01:05;;;;;;;;;;;;;;;23.52;48.04;97823.50;4266345;27;5598;-87
2022/07/08 07:03:09;;;;;;;;;;;;;;;23.48;48.06;97822.38;4263688;27;5688;-77
2022/07/08 07:05:14;;;;;;;;;;;;;;;23.46;47.86;97821.81;4259920;27;5894;-85
2022/07/08 07:07:17;;;;;;;;;;;;;;;23.51;48.19;97814.59;4264125;27;5632;-79
2022/07/08 07:09:23;;;;;;;;;;;;;;;23.56;47.57;97819.25;4265596;27;5631;-78
2022/07/08 07:11:26;;;;;;;;;;;;;;;23.54;47.33;97824.06;4264107;27;5738;-77
2022/07/08 07:13:29;;;;;;;;;;;;;;;23.49;47.78;97826.72;4265524;27;5652;-77
2022/07/08 07:15:32;;;;;;;;;;;;;;;23.48;47.19;97819.69;4259862;27;5655;-77
2022/07/08 07:17:37;;;;;;;;;;;;;;;23.44;47.36;97830.19;4253876;27;5835;-77
2022/07/08 07:19:43;;;;;;;;;;;;;;;23.44;47.49;97830.19;4252748;27;5589;-77
2022/07/08 07:21:48;;;;;;;;;;;;;;;23.47;47.85;97839.66;4253690;27;5702;-77
2022/07/08 07:23:51;;;;;;;;;;;;;;;23.46;47.45;97836.13;4254060;27;5698;-77
2022/07/08 07:25:54;;;;;;;;;;;;;;;23.52;47.47;97837.00;4252716;27;5323;-77
2022/07/08 07:27:57;;;;;;;;;;;;;;;23.57;47.65;97826.28;4253918;27;5632;-76
2022/07/08 07:30:01;;;;;;;;;;;;;;;23.62;47.54;97825.56;4251644;27;5612;-76
2022/07/08 07:32:04;;;;;;;;;;;;;;;23.67;47.03;97841.78;4251959;27;5554;-76
2022/07/08 07:34:10;;;;;;;;;;;;;;;23.62;46.92;97853.34;4253845;27;5725;-75
2022/07/08 07:36:13;;;;;;;;;;;;;;;23.65;47.15;97836.66;4249353;27;5605;-75
2022/07/08 07:38:18;;;;;;;;;;;;;;;23.68;46.92;97838.88;4252061;27;5595;-76
2022/07/08 07:40:21;;;;;;;;;;;;;;;23.68;46.87;97841.56;4252804;27;5636;-76
2022/07/08 07:42:24;;;;;;;;;;;;;;;23.63;46.49;97833.41;4252978;27;5684;-76
2022/07/08 07:44:27;;;;;;;;;;;;;;;23.66;46.97;97840.16;4251916;27;5874;-76
2022/07/08 07:46:31;;;;;;;;;;;;;;;23.65;46.90;97836.66;4253595;27;5624;-76
2022/07/08 07:48:34;;;;;;;;;;;;;;;23.67;46.67;97833.69;4253393;27;5679;-76
2022/07/08 07:50:40;;;;;;;;;;;;;;;23.63;46.57;97843.38;4251988;27;5616;-76
2022/07/08 07:52:43;;;;;;;;;;;;;;;23.57;46.58;97837.09;4252311;27;5630;-76
2022/07/08 07:54:48;;;;;;;;;;;;;;;23.59;46.17;97836.84;4252344;27;5632;-75
2022/07/08 07:56:51;;;;;;;;;;;;;;;23.61;46.03;97823.91;4253189;27;5701;-76
2022/07/08 07:58:54;;;;;;;;;;;;;;;23.64;46.16;97832.31;4252451;27;5698;-75
2022/07/08 08:00:57;;;;;;;;;;;;;;;23.63;45.91;97833.41;4252447;27;5635;-77
2022/07/08 08:03:01;;;;;;;;;;;;;;;23.68;46.27;97836.16;4252382;27;5815;-77
2022/07/08 08:05:05;;;;;;;;;;;;;;;23.69;45.60;97835.09;4251764;27;5818;-89
2022/07/08 08:07:08;;;;;;;;;;;;;;;23.64;46.05;97839.59;4252592;27;5718;-89
2022/07/08 08:09:12;;;;;;;;;;;;;;;23.57;45.53;97831.69;4251704;27;5639;-84
2022/07/08 08:11:18;;;;;;;;;;;;;;;23.56;45.63;97827.34;4252577;27;5660;-84
2022/07/08 08:13:21;;;;;;;;;;;;;;;23.58;45.40;97827.09;4251984;27;5735;-83
2022/07/08 08:15:29;;;;;;;;;;;;;;;23.55;45.56;97825.69;4253041;27;5627;-80
2022/07/08 08:17:39;;;;;;;;;;;;;;;23.53;45.44;97827.84;4252593;27;5634;-79
2022/07/08 08:19:42;;;;;;;;;;;;;;;23.58;45.60;97833.34;4252260;27;5639;-80
2022/07/08 08:21:47;;;;;;;;;;;;;;;23.54;45.11;97827.59;4252763;27;5665;-79
2022/07/08 08:23:52;;;;;;;;;;;;;;;23.58;45.27;97836.03;4253107;27;5628;-79
2022/07/08 08:25:56;;;;;;;;;;;;;;;23.60;44.83;97833.09;4249839;27;6488;-79
2022/07/08 08:28:00;;;;;;;;;;;;;;;23.56;44.65;97832.75;4251229;27;5657;-81
2022/07/08 08:30:04;;;;;;;;;;;;;;;23.57;44.51;97826.28;4252005;27;5635;-80
2022/07/08 08:32:08;;;;;;;;;;;;;;;23.52;44.51;97821.63;4252951;27;5627;-79
2022/07/08 08:34:11;;;;;;;;;;;;;;;23.58;44.42;97829.81;4251793;27;5735;-79
2022/07/08 08:36:17;;;;;;;;;;;;;;;23.68;44.72;97828.06;4251296;27;5075;-79
2022/07/08 08:38:21;;;;;;;;;;;;;;;23.69;44.41;97828.88;4250617;27;5581;-81
2022/07/08 08:40:24;;;;;;;;;;;;;;;23.72;44.06;97818.38;4251190;27;5623;-80
2022/07/08 08:42:28;;;;;;;;;;;;;;;23.70;43.91;97817.84;4251960;27;5628;-80
2022/07/08 08:44:33;;;;;;;;;;;;;;;23.71;44.26;97816.75;4249576;27;5586;-80
2022/07/08 08:46:37;;;;;;;;;;;;;;;23.74;44.16;97823.53;4252754;27;5725;-79
2022/07/08 08:48:40;;;;;;;;;;;;;;;23.72;43.66;97812.19;4251111;27;5628;-86
2022/07/08 08:50:57;;;;;;;;;;;;;;;23.73;43.74;97808.41;4251261;27;5806;-79
2022/07/08 08:53:03;;;;;;;;;;;;;;;23.72;43.88;97825.69;4247424;27;5637;-75
2022/07/08 08:55:07;;;;;;;;;;;;;;;23.66;44.05;97816.69;4252046;27;5627;-89
2022/07/08 08:57:10;;;;;;;;;;;;;;;23.70;43.52;97808.91;4250670;27;5641;-79
2022/07/08 08:59:15;;;;;;;;;;;;;;;23.77;43.61;97799.53;4252532;27;5624;-85
2022/07/08 09:01:21;;;;;;;;;;;;;;;23.88;43.58;97807.75;4250835;27;5722;-87
2022/07/08 09:03:25;;;;;;;;;;;;;;;23.93;43.23;97810.53;4246617;27;5711;-72
2022/07/08 09:05:30;;;;;;;;;;;;;;;23.94;43.47;97807.56;4238465;27;5961;-82
2022/07/08 09:07:33;;;;;;;;;;;;;;;23.99;42.97;97804.91;4248823;27;5718;-78
2022/07/08 09:09:36;;;;;;;;;;;;;;;24.04;43.26;97812.25;4251834;27;5839;-71
2022/07/08 09:11:40;;;;;;;;;;;;;;;24.11;43.05;97810.16;4235038;27;7012;-73
2022/07/08 09:13:43;;;;;;;;;;;;;;;24.13;42.58;97805.34;4238653;27;5639;-73
2022/07/08 09:15:49;;;;;;;;;;;;;;;24.12;42.81;97798.28;4252214;27;5194;-72
2022/07/08 09:17:54;;;;;;;;;;;;;;;24.12;42.74;97792.88;4251280;27;5623;-74
2022/07/08 09:19:57;;;;;;;;;;;;;;;24.12;42.25;97798.28;4251134;27;5628;-75
2022/07/08 09:22:00;;;;;;;;;;;;;;;24.12;42.24;97792.88;4249883;27;5739;-75
2022/07/08 09:24:18;;;;;;;;;;;;;;;24.15;41.98;97786.16;4236708;27;5753;-76
2022/07/08 09:26:28;;;;;;;;;;;;;;;24.19;41.86;97793.50;4238140;27;5726;-76
2022/07/08 09:28:33;;;;;;;;;;;;;;;24.19;41.82;97798.91;4247001;27;5702;-75
2022/07/08 09:30:36;;;;;;;;;;;;;;;24.17;41.55;97790.22;4232895;27;5214;-75
2022/07/08 09:32:39;;;;;;;;;;;;;;;24.19;41.48;97795.38;4232432;27;5732;-76
2022/07/08 09:34:43;;;;;;;;;;;;;;;24.18;41.83;97805.38;4248733;27;5719;-77
2022/07/08 09:36:48;;;;;;;;;;;;;;;24.20;41.40;97799.72;4248783;27;7711;-78
2022/07/08 09:38:51;;;;;;;;;;;;;;;24.21;41.38;97788.63;4249355;27;5722;-81
2022/07/08 09:40:56;;;;;;;;;;;;;;;24.24;41.67;97795.44;4249517;27;5719;-80
2022/07/08 09:43:01;;;;;;;;;;;;;;;24.24;41.00;97795.44;4248093;27;5728;-79
2022/07/08 09:45:09;;;;;;;;;;;;;;;24.25;41.09;97803.28;4249684;27;5730;-76
2022/07/08 09:47:13;;;;;;;;;;;;;;;24.28;41.33;97808.16;4247960;27;6360;-77
2022/07/08 09:49:29;;;;;;;;;;;;;;;24.30;41.78;97800.66;4249712;27;5864;-78
2022/07/08 09:51:37;;;;;;;;;;;;;;;24.37;41.40;97806.66;4250005;27;5855;-77
2022/07/08 09:53:41;;;;;;;;;;;;;;;24.37;41.08;97805.84;4249528;27;5726;-74
2022/07/08 09:55:46;;;;;;;;;;;;;;;24.35;41.24;97795.31;4249432;27;5734;-78
2022/07/08 09:57:49;;;;;;;;;;;;;;;24.38;41.25;97797.47;4249465;27;5739;-78
2022/07/08 09:59:54;;;;;;;;;;;;;;;24.41;40.91;97796.16;4249317;27;5199;-78
2022/07/08 10:01:59;;;;;;;;;;;;;;;24.45;40.90;97791.84;4249382;27;5721;-78
2022/07/08 10:04:02;;;;;;;;;;;;;;;24.46;41.30;97798.88;4249355;27;5722;-80
2022/07/08 10:06:06;;;;;;;;;;;;;;;24.51;40.77;97795.41;4238930;27;6440;-80
2022/07/08 10:08:11;;;;;;;;;;;;;;;24.55;40.67;97791.13;4249391;27;5843;-79
2022/07/08 10:10:15;;;;;;;;;;;;;;;24.59;40.94;97797.66;4240901;27;6334;-79
2022/07/08 10:12:19;;;;;;;;;;;;;;;24.59;40.59;97798.47;4232674;28;5815;-77
2022/07/08 10:14:23;;;;;;;;;;;;;;;24.62;40.35;97802.53;4231810;28;5778;-76
2022/07/08 10:16:26;;;;;;;;;;;;;;;24.65;40.66;97802.00;4232614;28;5715;-76
2022/07/08 10:18:36;;;;;;;;;;;;;;;24.71;40.16;97800.19;4250871;27;5738;-77
2022/07/08 10:20:41;;;;;;;;;;;;;;;24.70;40.30;97790.44;4249878;27;5712;-77
2022/07/08 10:22:48;;;;;;;;;;;;;;;24.71;40.38;97806.41;4243371;27;5755;-80
2022/07/08 10:24:53;;;;;;;;;;;;;;;24.72;40.13;97799.09;4232432;28;5735;-78
2022/07/08 10:26:59;;;;;;;;;;;;;;;24.74;40.13;97800.47;4232396;27;5905;-79
2022/07/08 10:29:06;;;;;;;;;;;;;;;24.77;40.01;97805.34;4232359;28;5763;-77
2022/07/08 10:31:20;;;;;;;;;;;;;;;24.85;40.13;97791.34;4232037;28;5884;-78
2022/07/08 10:33:29;;;;;;;;;;;;;;;24.90;40.30;97796.78;4232063;28;5740;-78
2022/07/08 10:35:32;;;;;;;;;;;;;;;24.96;40.20;97803.84;4247191;27;5700;-79
2022/07/08 10:37:50;;;;;;;;;;;;;;;25.02;39.85;97795.78;4249348;27;5719;-79
2022/07/08 10:39:56;;;;;;;;;;;;;;;25.02;39.70;97802.03;4249098;27;5738;-80
2022/07/08 10:42:05;;;;;;;;;;;;;;;25.02;39.53;97801.19;4249139;27;5734;-80
2022/07/08 10:44:08;;;;;;;;;;;;;;;25.02;39.73;97799.31;4249435;27;5849;-79
2022/07/08 10:46:14;;;;;;;;;;;;;;;25.06;38.84;97805.03;4248992;27;5722;-81
2022/07/08 10:48:18;;;;;;;;;;;;;;;25.08;38.87;97805.59;4249271;27;5979;-78
2022/07/08 10:50:23;;;;;;;;;;;;;;;25.06;38.93;97796.91;4248868;27;5726;-77
2022/07/08 10:52:33;;;;;;;;;;;;;;;25.09;38.56;97805.31;4250600;27;5744;-76
2022/07/08 10:54:37;;;;;;;;;;;;;;;25.13;38.60;97808.31;4253252;27;5730;-75
2022/07/08 10:56:50;;;;;;;;;;;;;;;25.13;38.29;97816.41;4252180;27;5726;-73
2022/07/08 10:59:18;;;;;;;;;;;;;;;25.09;38.78;97786.38;4253367;27;5742;-81
2022/07/08 11:01:26;;;;;;;;;;;;;;;25.13;38.26;97792.88;4252160;27;5840;-82
2022/07/08 11:03:42;;;;;;;;;;;;;;;25.17;38.65;97809.44;4251282;27;5712;-80
2022/07/08 11:05:45;;;;;;;;;;;;;;;25.20;38.31;97800.78;4245126;27;5697;-80
2022/07/08 11:07:48;;;;;;;;;;;;;;;25.19;38.64;97799.16;4239335;27;6364;-78
2022/07/08 11:09:53;;;;;;;;;;;;;;;25.17;38.37;97798.59;4247400;27;5799;-77
2022/07/08 11:11:58;;;;;;;;;;;;;;;25.24;38.54;97799.16;4244870;27;5090;-78
2022/07/08 11:14:02;;;;;;;;;;;;;;;25.29;38.08;97799.22;4251442;27;5710;-77
2022/07/08 11:16:06;;;;;;;;;;;;;;;25.33;38.38;97789.47;4250925;27;6427;-79
2022/07/08 11:18:12;;;;;;;;;;;;;;;25.36;38.13;97793.53;4250378;27;5700;-80
2022/07/08 11:20:18;;;;;;;;;;;;;;;25.38;38.19;97800.34;4251932;27;5958;-79
2022/07/08 11:22:22;;;;;;;;;;;;;;;25.43;38.02;97796.81;4249922;27;5778;-80
2022/07/08 11:24:29;;;;;;;;;;;;;;;25.48;37.92;97786.84;4235120;27;5798;-80
2022/07/08 11:26:32;;;;;;;;;;;;;;;25.48;37.91;97800.38;4248446;27;5699;-80
2022/07/08 11:28:39;;;;;;;;;;;;;;;25.52;37.78;97781.72;4250598;27;5741;-74
2022/07/08 11:30:43;;;;;;;;;;;;;;;25.54;37.92;97788.47;4249283;27;5851;-78
2022/07/08 11:32:49;;;;;;;;;;;;;;;25.55;37.97;97790.13;4251545;27;5715;-77
2022/07/08 11:34:53;;;;;;;;;;;;;;;25.54;37.58;97777.66;4252875;27;5787;-77
2022/07/08 11:36:56;;;;;;;;;;;;;;;25.54;37.37;97793.91;4250207;27;5739;-81
2022/07/08 11:39:04;;;;;;;;;;;;;;;25.59;37.11;97795.00;4250181;27;5704;-82
2022/07/08 11:41:07;;;;;;;;;;;;;;;25.61;37.16;97782.84;4250265;27;5754;-82
2022/07/08 11:43:15;;;;;;;;;;;;;;;25.64;36.84;97781.47;4251086;27;5726;-82
2022/07/08 11:45:20;;;;;;;;;;;;;;;25.61;36.70;97782.84;4248453;27;5791;-82
2022/07/08 11:47:23;;;;;;;;;;;;;;;25.70;36.76;97780.44;4251311;27;5735;-82
2022/07/08 11:49:27;;;;;;;;;;;;;;;25.70;36.67;97775.03;4251548;27;5715;-82
2022/07/08 11:51:30;;;;;;;;;;;;;;;25.79;36.79;97784.25;4250927;27;5753;-80
2022/07/08 11:53:33;;;;;;;;;;;;;;;25.79;36.92;97784.25;4250647;27;5727;-77
2022/07/08 11:55:45;;;;;;;;;;;;;;;25.83;36.33;97778.06;4249214;27;5833;-77
2022/07/08 11:57:49;;;;;;;;;;;;;;;25.86;36.46;97778.59;4249103;27;5718;-81
2022/07/08 11:59:52;;;;;;;;;;;;;;;25.87;36.42;97778.31;4248559;27;5704;-81
2022/07/08 12:01:58;;;;;;;;;;;;;;;25.88;36.16;97773.72;4249371;27;5886;-80
2022/07/08 12:04:05;;;;;;;;;;;;;;;25.91;35.94;97782.13;4250118;27;5726;-80
2022/07/08 12:06:09;;;;;;;;;;;;;;;25.95;36.04;97782.41;4241660;27;5760;-81
2022/07/08 12:08:13;;;;;;;;;;;;;;;25.96;36.00;97779.44;4233800;28;5744;-81
2022/07/08 12:10:22;;;;;;;;;;;;;;;25.97;35.82;97783.78;4236008;27;5748;-79
2022/07/08 12:12:26;;;;;;;;;;;;;;;25.97;35.41;97764.00;4235680;27;5721;-78
2022/07/08 12:14:34;;;;;;;;;;;;;;;26.00;35.24;97761.56;4250532;27;5786;-78
2022/07/08 12:16:45;;;;;;;;;;;;;;;26.04;35.21;97765.34;4250697;27;5750;-77
2022/07/08 12:18:49;;;;;;;;;;;;;;;26.08;35.25;97760.22;4251111;27;5726;-77
2022/07/08 12:20:52;;;;;;;;;;;;;;;26.09;35.04;97756.41;4249427;27;5746;-77
2022/07/08 12:22:57;;;;;;;;;;;;;;;26.10;34.98;97764.28;4250760;27;5758;-77
2022/07/08 12:25:05;;;;;;;;;;;;;;;26.15;35.18;97768.88;4250578;27;5737;-84
2022/07/08 12:27:10;;;;;;;;;;;;;;;26.13;35.27;97763.72;4249464;27;5746;-84
2022/07/08 12:29:16;;;;;;;;;;;;;;;26.20;35.25;97768.09;4250791;27;5711;-84
2022/07/08 12:31:41;;;;;;;;;;;;;;;26.21;35.35;97762.38;4251087;27;6482;-83
2022/07/08 12:34:00;;;;;;;;;;;;;;;26.24;35.26;97774.59;4246191;27;5738;-83
2022/07/08 12:36:28;;;;;;;;;;;;;;;26.26;35.13;97761.56;4248814;27;5762;-83
2022/07/08 12:38:31;;;;;;;;;;;;;;;26.26;35.17;97761.56;4250827;27;5730;-82
2022/07/08 12:40:39;;;;;;;;;;;;;;;26.28;34.88;97762.13;4238682;27;5725;-74
2022/07/08 12:42:43;;;;;;;;;;;;;;;26.30;35.00;97765.38;4232760;28;5736;-74
2022/07/08 12:44:50;;;;;;;;;;;;;;;26.31;35.10;97769.72;4231099;28;5706;-74
2022/07/08 12:46:53;;;;;;;;;;;;;;;26.28;34.53;97765.66;4246964;27;5770;-77
2022/07/08 12:48:57;;;;;;;;;;;;;;;26.28;34.55;97765.66;4249180;27;5832;-76
2022/07/08 12:50:59;;;;;;;;;;;;;;;26.29;34.45;97761.06;4250600;27;5876;-78
2022/07/08 12:53:05;;;;;;;;;;;;;;;26.32;34.46;97763.22;4250076;27;5746;-74
2022/07/08 12:55:09;;;;;;;;;;;;;;;26.30;34.47;97762.66;4249081;27;5733;-74
2022/07/08 12:57:13;;;;;;;;;;;;;;;26.31;34.40;97767.00;4248672;27;5640;-74
2022/07/08 12:59:16;;;;;;;;;;;;;;;26.35;34.33;97768.09;4231296;28;5692;-75
2022/07/08 13:01:19;;;;;;;;;;;;;;;26.34;34.14;97752.91;4232570;28;5748;-75
2022/07/08 13:03:23;;;;;;;;;;;;;;;26.40;34.01;97768.94;4232553;28;5739;-75
2022/07/08 13:05:29;;;;;;;;;;;;;;;26.41;33.71;97756.19;4231110;27;5748;-77
2022/07/08 13:07:35;;;;;;;;;;;;;;;26.45;33.56;97754.56;4247821;27;5711;-77
2022/07/08 13:09:39;;;;;;;;;;;;;;;26.51;33.39;97766.22;4250075;27;5737;-77
2022/07/08 13:11:43;;;;;;;;;;;;;;;26.49;33.69;97761.06;4232979;27;5748;-77
2022/07/08 13:13:47;;;;;;;;;;;;;;;26.50;33.29;97762.69;4232213;28;5859;-77
2022/07/08 13:15:50;;;;;;;;;;;;;;;26.51;33.30;97764.34;4232808;27;5756;-74
2022/07/08 13:17:53;;;;;;;;;;;;;;;26.53;33.47;97758.63;4241191;27;5731;-73
2022/07/08 13:19:58;;;;;;;;;;;;;;;26.55;33.28;97759.16;4246829;27;5715;-73
2022/07/08 13:22:01;;;;;;;;;;;;;;;26.60;33.37;97772.72;4244996;27;5888;-74
2022/07/08 13:24:05;;;;;;;;;;;;;;;26.60;33.32;97768.09;4245878;27;5734;-71
2022/07/08 13:26:10;;;;;;;;;;;;;;;26.52;32.90;97755.09;4248328;27;5797;-73
2022/07/08 13:28:13;;;;;;;;;;;;;;;26.57;32.68;97752.38;4247574;27;5745;-73
2022/07/08 13:30:23;;;;;;;;;;;;;;;26.55;33.07;97749.13;4243822;27;5867;-77
2022/07/08 13:32:27;;;;;;;;;;;;;;;26.59;32.98;97749.41;4246578;27;5734;-78
2022/07/08 13:34:30;;;;;;;;;;;;;;;26.57;32.64;97746.97;4247970;27;5739;-77
2022/07/08 13:36:33;;;;;;;;;;;;;;;26.57;32.57;97746.97;4244856;27;8472;-77
2022/07/08 13:38:36;;;;;;;;;;;;;;;26.62;32.75;97749.69;4247778;27;5735;-79
2022/07/08 13:40:42;;;;;;;;;;;;;;;26.64;32.21;97755.63;4246935;27;6066;-76
2022/07/08 13:42:50;;;;;;;;;;;;;;;26.67;32.39;97751.56;4245413;27;5838;-82
2022/07/08 13:44:54;;;;;;;;;;;;;;;26.67;32.39;97763.22;4246548;27;5755;-76
2022/07/08 13:47:01;;;;;;;;;;;;;;;26.68;32.13;97751.28;4248823;27;5839;-76
2022/07/08 13:49:04;;;;;;;;;;;;;;;26.69;32.14;97750.19;4242992;27;5656;-76
2022/07/08 13:51:07;;;;;;;;;;;;;;;26.72;32.05;97745.31;4246581;27;5815;-76
2022/07/08 13:53:10;;;;;;;;;;;;;;;26.72;31.85;97751.53;4246790;27;6444;-76
2022/07/08 13:55:14;;;;;;;;;;;;;;;26.76;31.68;97749.13;4247619;27;5771;-76
2022/07/08 13:57:17;;;;;;;;;;;;;;;26.75;31.58;97747.50;4246865;27;5707;-76
2022/07/08 13:59:22;;;;;;;;;;;;;;;26.77;31.57;97748.84;4244663;27;5700;-76
2022/07/08 14:01:25;;;;;;;;;;;;;;;26.78;31.81;97746.94;4245068;27;5246;-76
2022/07/08 14:03:28;;;;;;;;;;;;;;;26.79;31.33;97746.66;4247211;27;5727;-77
2022/07/08 14:05:31;;;;;;;;;;;;;;;26.83;31.51;97758.56;4246683;27;5715;-76
2022/07/08 14:07:34;;;;;;;;;;;;;;;26.81;31.10;97740.94;4231062;27;5793;-75
2022/07/08 14:09:37;;;;;;;;;;;;;;;26.79;30.97;97753.97;4233964;27;5761;-74
2022/07/08 14:11:40;;;;;;;;;;;;;;;26.80;31.29;97751.00;4245425;27;5726;-75
2022/07/08 14:13:46;;;;;;;;;;;;;;;26.81;31.14;97741.75;4247509;27;5718;-74
2022/07/08 14:15:52;;;;;;;;;;;;;;;26.83;31.03;97744.19;4210411;28;5778;-74
2022/07/08 14:17:56;;;;;;;;;;;;;;;26.85;31.21;97755.63;4209069;28;6227;-72
2022/07/08 14:19:59;;;;;;;;;;;;;;;26.87;31.25;97745.28;4214136;28;5779;-76
2022/07/08 14:22:02;;;;;;;;;;;;;;;26.89;30.73;97737.69;4214594;28;5101;-76
2022/07/08 14:24:06;;;;;;;;;;;;;;;26.91;31.18;97744.44;4214418;28;5766;-76
2022/07/08 14:26:09;;;;;;;;;;;;;;;26.89;30.87;97743.13;4215229;28;5779;-75
2022/07/08 14:28:13;;;;;;;;;;;;;;;26.89;30.77;97737.69;4216953;28;5786;-76
2022/07/08 14:30:16;;;;;;;;;;;;;;;26.88;30.62;97734.16;4217073;28;5774;-75
2022/07/08 14:32:21;;;;;;;;;;;;;;;26.90;30.55;97737.41;4216454;28;5852;-75
2022/07/08 14:34:24;;;;;;;;;;;;;;;26.88;30.69;97726.03;4217838;28;5853;-76
2022/07/08 14:36:27;;;;;;;;;;;;;;;26.89;31.08;97734.97;4216554;28;5789;-74
2022/07/08 14:38:30;;;;;;;;;;;;;;;26.91;30.85;97728.19;4217108;28;6626;-75
2022/07/08 14:40:37;;;;;;;;;;;;;;;26.92;30.61;97735.22;4217495;28;5870;-75
2022/07/08 14:42:41;;;;;;;;;;;;;;;26.94;30.72;97730.34;4218570;28;5818;-75
2022/07/08 14:44:43;;;;;;;;;;;;;;;26.94;30.93;97724.91;4215252;28;5838;-75
2022/07/08 14:46:47;;;;;;;;;;;;;;;26.95;30.88;97737.38;4217482;28;5777;-75
2022/07/08 14:48:52;;;;;;;;;;;;;;;26.99;30.77;97729.53;4216915;28;5769;-74
2022/07/08 14:50:55;;;;;;;;;;;;;;;27.02;30.54;97730.91;4215660;28;5848;-67
2022/07/08 14:52:58;;;;;;;;;;;;;;;27.04;30.49;97723.28;4219872;28;5888;-80
2022/07/08 14:55:01;;;;;;;;;;;;;;;27.04;30.67;97715.94;4220659;28;5816;-79
2022/07/08 14:57:09;;;;;;;;;;;;;;;27.04;30.40;97720.56;4218488;28;5089;-75
2022/07/08 14:59:12;;;;;;;;;;;;;;;27.05;30.78;97728.44;4212604;28;5754;-75
2022/07/08 15:01:15;;;;;;;;;;;;;;;27.08;30.43;97727.09;4214298;28;5774;-73
2022/07/08 15:03:18;;;;;;;;;;;;;;;27.07;30.63;97720.84;4211589;28;5812;-71
2022/07/08 15:05:41;;;;;;;;;;;;;;;27.06;30.67;97729.25;4213304;28;5769;-71
2022/07/08 15:07:44;;;;;;;;;;;;;;;27.04;30.44;97724.09;4209325;28;6521;-71
2022/07/08 15:09:47;;;;;;;;;;;;;;;27.02;30.39;97720.84;4212807;28;5792;-71
2022/07/08 15:11:51;;;;;;;;;;;;;;;27.01;30.31;97719.19;4215916;28;5781;-71
2022/07/08 15:13:54;;;;;;;;;;;;;;;27.04;30.35;97712.44;4215418;27;5822;-70
2022/07/08 15:15:59;;;;;;;;;;;;;;;27.07;30.53;97712.72;4249165;27;5640;-70
2022/07/08 15:18:03;;;;;;;;;;;;;;;27.12;30.22;97723.53;4247035;27;6482;-70
2022/07/08 15:20:07;;;;;;;;;;;;;;;27.13;30.40;97727.88;4249795;27;5723;-74
2022/07/08 15:22:11;;;;;;;;;;;;;;;27.11;30.25;97713.78;4250203;27;5715;-70
2022/07/08 15:24:14;;;;;;;;;;;;;;;27.12;30.16;97728.97;4246953;27;5750;-72
2022/07/08 15:26:17;;;;;;;;;;;;;;;27.14;30.19;97712.41;4248862;27;5742;-73
2022/07/08 15:28:21;;;;;;;;;;;;;;;27.15;29.71;97708.59;4243788;27;5707;-73
2022/07/08 15:30:24;;;;;;;;;;;;;;;27.19;29.86;97720.53;4250660;27;8595;-74
2022/07/08 15:32:27;;;;;;;;;;;;;;;27.20;29.69;97714.00;4248377;27;5750;-75
2022/07/08 15:34:30;;;;;;;;;;;;;;;27.17;29.62;97704.50;4252835;27;5719;-76
2022/07/08 15:36:36;;;;;;;;;;;;;;;27.15;29.76;97697.72;4248334;27;5754;-78
2022/07/08 15:38:40;;;;;;;;;;;;;;;27.14;29.79;97715.91;4250489;27;5723;-78
2022/07/08 15:40:43;;;;;;;;;;;;;;;27.13;29.76;97706.16;4249566;27;5823;-78
2022/07/08 15:42:46;;;;;;;;;;;;;;;27.13;29.56;97700.72;4251294;27;5730;-75
2022/07/08 15:44:53;;;;;;;;;;;;;;;27.13;29.50;97706.16;4250716;27;5730;-74
2022/07/08 15:46:56;;;;;;;;;;;;;;;27.17;29.89;97700.97;4250839;27;5727;-74
2022/07/08 15:48:59;;;;;;;;;;;;;;;27.17;29.92;97701.78;4252157;27;5746;-74
2022/07/08 15:51:03;;;;;;;;;;;;;;;27.20;29.87;97712.13;4250689;27;5711;-74
2022/07/08 15:53:06;;;;;;;;;;;;;;;27.17;29.44;97709.94;4251113;27;5712;-78
2022/07/08 15:55:11;;;;;;;;;;;;;;;27.13;29.79;97700.72;4253481;27;5727;-75
2022/07/08 15:57:14;;;;;;;;;;;;;;;27.12;29.88;97699.09;4252687;27;5831;-76
2022/07/08 15:59:17;;;;;;;;;;;;;;;27.10;29.61;97701.28;4251047;27;5706;-74
2022/07/08 16:01:20;;;;;;;;;;;;;;;27.07;29.28;97696.44;4236466;27;5724;-74
2022/07/08 16:03:23;;;;;;;;;;;;;;;27.12;29.30;97693.69;4242838;27;5873;-75
2022/07/08 16:05:38;;;;;;;;;;;;;;;27.11;29.39;97692.06;4245344;27;5879;-73
2022/07/08 16:07:41;;;;;;;;;;;;;;;27.08;29.47;97686.38;4242250;27;5723;-75
2022/07/08 16:09:44;;;;;;;;;;;;;;;27.06;29.26;97692.06;4252402;27;5695;-74
2022/07/08 16:11:49;;;;;;;;;;;;;;;27.06;28.80;97689.34;4250652;27;5098;-78
2022/07/08 16:13:52;;;;;;;;;;;;;;;27.04;28.98;97691.53;4249463;27;5772;-73
2022/07/08 16:15:54;;;;;;;;;;;;;;;27.05;29.14;97698.59;4240726;27;5718;-73
2022/07/08 16:17:58;;;;;;;;;;;;;;;27.03;28.95;97673.63;4250885;27;5700;-78
2022/07/08 16:20:04;;;;;;;;;;;;;;;27.05;29.02;97695.06;4241652;27;6482;-78
2022/07/08 16:22:07;;;;;;;;;;;;;;;27.04;29.09;97683.38;4247049;27;5700;-78
2022/07/08 16:24:10;;;;;;;;;;;;;;;27.06;28.80;97693.97;4252272;27;5919;-76
2022/07/08 16:26:13;;;;;;;;;;;;;;;27.05;29.10;97676.88;4250065;27;5813;-75
2022/07/08 16:28:18;;;;;;;;;;;;;;;27.03;29.06;97673.63;4249773;27;5746;-76
2022/07/08 16:30:21;;;;;;;;;;;;;;;27.06;29.17;97689.34;4249346;27;5730;-77
2022/07/08 16:32:24;;;;;;;;;;;;;;;27.08;28.92;97673.63;4247808;27;5803;-74
2022/07/08 16:34:27;;;;;;;;;;;;;;;27.10;29.01;97679.59;4247911;27;5692;-74
2022/07/08 16:36:32;;;;;;;;;;;;;;;27.10;28.78;97676.88;4248717;27;5723;-74
2022/07/08 16:38:36;;;;;;;;;;;;;;;27.13;28.87;97684.44;4249034;27;5786;-75
2022/07/08 16:40:39;;;;;;;;;;;;;;;27.13;28.93;97673.59;4249502;27;5686;-75
2022/07/08 16:42:42;;;;;;;;;;;;;;;27.12;28.87;97685.53;4249335;27;5817;-73
2022/07/08 16:44:46;;;;;;;;;;;;;;;27.07;28.83;97685.56;4249400;27;5710;-78
2022/07/08 16:46:53;;;;;;;;;;;;;;;27.04;28.50;97686.09;4249736;27;5118;-78
2022/07/08 16:48:56;;;;;;;;;;;;;;;27.01;28.65;97674.97;4249254;27;5836;-79
2022/07/08 16:50:59;;;;;;;;;;;;;;;26.99;28.58;97677.97;4250112;27;5786;-78
2022/07/08 16:53:03;;;;;;;;;;;;;;;26.98;28.79;97677.16;4248927;27;5704;-77
2022/07/08 16:55:06;;;;;;;;;;;;;;;27.00;28.60;97668.72;4250106;27;6471;-78
2022/07/08 16:57:10;;;;;;;;;;;;;;;27.02;28.46;97676.63;4250616;27;5734;-76
2022/07/08 16:59:13;;;;;;;;;;;;;;;27.00;28.58;97674.16;4248353;27;5700;-76
2022/07/08 17:01:17;;;;;;;;;;;;;;;27.02;28.74;97671.19;4250098;27;5759;-76
2022/07/08 17:03:20;;;;;;;;;;;;;;;27.02;28.85;97672.00;4249416;27;5726;-75
2022/07/08 17:05:23;;;;;;;;;;;;;;;27.01;28.82;97681.22;4248078;27;5704;-77
2022/07/08 17:07:26;;;;;;;;;;;;;;;26.99;28.53;97662.50;4241873;27;5828;-78
2022/07/08 17:09:29;;;;;;;;;;;;;;;26.97;29.04;97680.16;4248347;27;5742;-78
2022/07/08 17:11:32;;;;;;;;;;;;;;;26.97;28.80;97680.16;4247259;27;5920;-78
2022/07/08 17:13:35;;;;;;;;;;;;;;;26.96;28.80;97683.97;4249529;27;5722;-77